sensor_id;sensor_type;location;lat;lon;timestamp;temperature;humidity
11087;DHT22;5597;47.588;9.642;2022-08-23T00:00:58;14.40;99.90
11087;DHT22;5597;47.588;9.642;2022-08-23T00:03:24;14.40;99.90
11087;DHT22;5597;47.588;9.642;2022-08-23T00:05:49;14.50;99.90
11087;DHT22;5597;47.588;9.642;2022-08-23T00:08:15;14.50;99.90
11087;DHT22;5597;47.588;9.642;2022-08-23T00:10:40;14.50;99.90
11087;DHT22;5597;47.588;9.642;2022-08-23T00:13:06;14.40;99.90
11087;DHT22;5597;47.588;9.642;2022-08-23T00:15:32;14.30;99.90
11087;DHT22;5597;47.588;9.642;2022-08-23T00:17:57;14.30;99.90
11087;DHT22;5597;47.588;9.642;2022-08-23T00:20:24;14.20;99.90
11087;DHT22;5597;47.588;9.642;2022-08-23T00:22:50;14.10;99.90
11087;DHT22;5597;47.588;9.642;2022-08-23T00:25:16;14.20;99.90
11087;DHT22;5597;47.588;9.642;2022-08-23T00:27:43;14.20;99.90
11087;DHT22;5597;47.588;9.642;2022-08-23T00:30:11;14.20;99.90
11087;DHT22;5597;47.588;9.642;2022-08-23T00:32:38;14.20;99.90
11087;DHT22;5597;47.588;9.642;2022-08-23T00:35:05;14.10;99.90
11087;DHT22;5597;47.588;9.642;2022-08-23T00:37:32;14.10;99.90
11087;DHT22;5597;47.588;9.642;2022-08-23T00:39:58;14.00;99.90
11087;DHT22;5597;47.588;9.642;2022-08-23T00:45:17;13.80;99.90
11087;DHT22;5597;47.588;9.642;2022-08-23T00:48:04;13.70;99.90
11087;DHT22;5597;47.588;9.642;2022-08-23T00:50:38;13.70;99.90
11087;DHT22;5597;47.588;9.642;2022-08-23T00:53:23;13.60;99.90
11087;DHT22;5597;47.588;9.642;2022-08-23T00:55:51;13.50;99.90
11087;DHT22;5597;47.588;9.642;2022-08-23T00:58:20;13.40;99.90
11087;DHT22;5597;47.588;9.642;2022-08-23T01:00:48;13.30;99.90
11087;DHT22;5597;47.588;9.642;2022-08-23T01:03:14;13.30;99.90
11087;DHT22;5597;47.588;9.642;2022-08-23T01:06:10;13.20;99.90
11087;DHT22;5597;47.588;9.642;2022-08-23T01:08:40;13.10;99.90
11087;DHT22;5597;47.588;9.642;2022-08-23T01:11:16;13.00;99.90
11087;DHT22;5597;47.588;9.642;2022-08-23T01:13:50;13.00;99.90
11087;DHT22;5597;47.588;9.642;2022-08-23T01:16:21;12.90;99.90
11087;DHT22;5597;47.588;9.642;2022-08-23T01:18:50;12.90;99.90
11087;DHT22;5597;47.588;9.642;2022-08-23T01:21:37;12.90;99.90
11087;DHT22;5597;47.588;9.642;2022-08-23T01:24:04;12.80;99.90
11087;DHT22;5597;47.588;9.642;2022-08-23T01:26:31;12.80;99.90
11087;DHT22;5597;47.588;9.642;2022-08-23T01:29:02;12.80;99.90
11087;DHT22;5597;47.588;9.642;2022-08-23T01:31:28;12.80;99.90
11087;DHT22;5597;47.588;9.642;2022-08-23T01:33:58;12.80;99.90
11087;DHT22;5597;47.588;9.642;2022-08-23T01:36:24;12.70;99.90
11087;DHT22;5597;47.588;9.642;2022-08-23T01:38:50;12.70;99.90
11087;DHT22;5597;47.588;9.642;2022-08-23T01:41:16;12.60;99.90
11087;DHT22;5597;47.588;9.642;2022-08-23T01:43:41;12.70;99.90
11087;DHT22;5597;47.588;9.642;2022-08-23T01:46:10;12.60;99.90
11087;DHT22;5597;47.588;9.642;2022-08-23T01:48:36;12.60;99.90
11087;DHT22;5597;47.588;9.642;2022-08-23T01:51:02;12.60;99.90
11087;DHT22;5597;47.588;9.642;2022-08-23T01:53:28;12.50;99.90
11087;DHT22;5597;47.588;9.642;2022-08-23T01:55:53;12.50;99.90
11087;DHT22;5597;47.588;9.642;2022-08-23T01:58:19;12.50;99.90
11087;DHT22;5597;47.588;9.642;2022-08-23T02:00:45;12.50;99.90
11087;DHT22;5597;47.588;9.642;2022-08-23T02:03:11;12.40;99.90
11087;DHT22;5597;47.588;9.642;2022-08-23T02:05:41;12.40;99.90
11087;DHT22;5597;47.588;9.642;2022-08-23T02:08:08;12.30;99.90
11087;DHT22;5597;47.588;9.642;2022-08-23T02:10:52;12.30;99.90
11087;DHT22;5597;47.588;9.642;2022-08-23T02:13:18;12.20;99.90
11087;DHT22;5597;47.588;9.642;2022-08-23T02:15:44;12.20;99.90
11087;DHT22;5597;47.588;9.642;2022-08-23T02:18:11;12.20;99.90
11087;DHT22;5597;47.588;9.642;2022-08-23T02:20:46;12.10;99.90
11087;DHT22;5597;47.588;9.642;2022-08-23T02:23:13;12.10;99.90
11087;DHT22;5597;47.588;9.642;2022-08-23T02:25:39;12.10;99.90
11087;DHT22;5597;47.588;9.642;2022-08-23T02:28:05;12.00;99.90
11087;DHT22;5597;47.588;9.642;2022-08-23T02:30:30;12.00;99.90
11087;DHT22;5597;47.588;9.642;2022-08-23T02:32:56;12.00;99.90
11087;DHT22;5597;47.588;9.642;2022-08-23T02:35:22;11.90;99.90
11087;DHT22;5597;47.588;9.642;2022-08-23T02:37:48;11.90;99.90
11087;DHT22;5597;47.588;9.642;2022-08-23T02:40:14;11.80;99.90
11087;DHT22;5597;47.588;9.642;2022-08-23T02:42:40;11.80;99.90
11087;DHT22;5597;47.588;9.642;2022-08-23T02:45:07;11.70;99.90
11087;DHT22;5597;47.588;9.642;2022-08-23T02:47:33;11.80;99.90
11087;DHT22;5597;47.588;9.642;2022-08-23T02:50:05;11.80;99.90
11087;DHT22;5597;47.588;9.642;2022-08-23T02:52:31;11.80;99.90
11087;DHT22;5597;47.588;9.642;2022-08-23T02:54:57;11.80;99.90
11087;DHT22;5597;47.588;9.642;2022-08-23T02:57:23;11.80;99.90
11087;DHT22;5597;47.588;9.642;2022-08-23T02:59:48;11.80;99.90
11087;DHT22;5597;47.588;9.642;2022-08-23T03:02:14;11.80;99.90
11087;DHT22;5597;47.588;9.642;2022-08-23T03:04:40;11.70;99.90
11087;DHT22;5597;47.588;9.642;2022-08-23T03:07:06;11.70;99.90
11087;DHT22;5597;47.588;9.642;2022-08-23T03:09:31;11.70;99.90
11087;DHT22;5597;47.588;9.642;2022-08-23T03:11:57;11.70;99.90
11087;DHT22;5597;47.588;9.642;2022-08-23T03:14:23;11.70;99.90
11087;DHT22;5597;47.588;9.642;2022-08-23T03:16:49;11.70;99.90
11087;DHT22;5597;47.588;9.642;2022-08-23T03:19:15;11.70;99.90
11087;DHT22;5597;47.588;9.642;2022-08-23T03:21:41;11.70;99.90
11087;DHT22;5597;47.588;9.642;2022-08-23T03:24:08;11.70;99.90
11087;DHT22;5597;47.588;9.642;2022-08-23T03:26:34;11.70;99.90
11087;DHT22;5597;47.588;9.642;2022-08-23T03:29:00;11.60;99.90
11087;DHT22;5597;47.588;9.642;2022-08-23T03:31:26;11.60;99.90
11087;DHT22;5597;47.588;9.642;2022-08-23T03:33:52;11.60;99.90
11087;DHT22;5597;47.588;9.642;2022-08-23T03:36:18;11.60;99.90
11087;DHT22;5597;47.588;9.642;2022-08-23T03:38:44;11.50;99.90
11087;DHT22;5597;47.588;9.642;2022-08-23T03:41:10;11.50;99.90
11087;DHT22;5597;47.588;9.642;2022-08-23T03:43:36;11.50;99.90
11087;DHT22;5597;47.588;9.642;2022-08-23T03:46:02;11.50;99.90
11087;DHT22;5597;47.588;9.642;2022-08-23T03:48:29;11.40;99.90
11087;DHT22;5597;47.588;9.642;2022-08-23T03:50:54;11.50;99.90
11087;DHT22;5597;47.588;9.642;2022-08-23T03:53:21;11.50;99.90
11087;DHT22;5597;47.588;9.642;2022-08-23T03:55:48;11.40;99.90
11087;DHT22;5597;47.588;9.642;2022-08-23T03:58:14;11.40;99.90
11087;DHT22;5597;47.588;9.642;2022-08-23T04:00:40;11.40;99.90
11087;DHT22;5597;47.588;9.642;2022-08-23T04:03:06;11.40;99.90
11087;DHT22;5597;47.588;9.642;2022-08-23T04:05:32;11.40;99.90
11087;DHT22;5597;47.588;9.642;2022-08-23T04:07:57;11.50;99.90
11087;DHT22;5597;47.588;9.642;2022-08-23T04:10:23;11.40;99.90
11087;DHT22;5597;47.588;9.642;2022-08-23T04:12:49;11.40;99.90
11087;DHT22;5597;47.588;9.642;2022-08-23T04:15:16;11.30;99.90
11087;DHT22;5597;47.588;9.642;2022-08-23T04:17:43;11.30;99.90
11087;DHT22;5597;47.588;9.642;2022-08-23T04:20:09;11.30;99.90
11087;DHT22;5597;47.588;9.642;2022-08-23T04:22:35;11.30;99.90
11087;DHT22;5597;47.588;9.642;2022-08-23T04:25:01;11.30;99.90
11087;DHT22;5597;47.588;9.642;2022-08-23T04:27:27;11.20;99.90
11087;DHT22;5597;47.588;9.642;2022-08-23T04:29:52;11.20;99.90
11087;DHT22;5597;47.588;9.642;2022-08-23T04:32:18;11.20;99.90
11087;DHT22;5597;47.588;9.642;2022-08-23T04:34:44;11.20;99.90
11087;DHT22;5597;47.588;9.642;2022-08-23T04:37:10;11.20;99.90
11087;DHT22;5597;47.588;9.642;2022-08-23T04:39:37;11.10;99.90
11087;DHT22;5597;47.588;9.642;2022-08-23T04:42:22;11.10;99.90
11087;DHT22;5597;47.588;9.642;2022-08-23T04:44:48;11.10;99.90
11087;DHT22;5597;47.588;9.642;2022-08-23T04:47:14;11.10;99.90
11087;DHT22;5597;47.588;9.642;2022-08-23T04:49:40;11.00;99.90
11087;DHT22;5597;47.588;9.642;2022-08-23T04:52:05;11.00;99.90
11087;DHT22;5597;47.588;9.642;2022-08-23T04:54:31;11.00;99.90
11087;DHT22;5597;47.588;9.642;2022-08-23T04:56:57;11.00;99.90
11087;DHT22;5597;47.588;9.642;2022-08-23T04:59:22;11.00;99.90
11087;DHT22;5597;47.588;9.642;2022-08-23T05:01:49;11.00;99.90
11087;DHT22;5597;47.588;9.642;2022-08-23T05:04:15;11.00;99.90
11087;DHT22;5597;47.588;9.642;2022-08-23T05:06:41;11.10;99.90
11087;DHT22;5597;47.588;9.642;2022-08-23T05:09:07;11.20;99.90
11087;DHT22;5597;47.588;9.642;2022-08-23T05:11:32;11.20;99.90
11087;DHT22;5597;47.588;9.642;2022-08-23T05:13:58;11.30;99.90
11087;DHT22;5597;47.588;9.642;2022-08-23T05:16:24;11.40;99.90
11087;DHT22;5597;47.588;9.642;2022-08-23T05:18:49;11.50;99.90
11087;DHT22;5597;47.588;9.642;2022-08-23T05:21:17;11.60;99.90
11087;DHT22;5597;47.588;9.642;2022-08-23T05:23:44;11.70;99.90
11087;DHT22;5597;47.588;9.642;2022-08-23T05:26:10;11.80;99.90
11087;DHT22;5597;47.588;9.642;2022-08-23T05:28:38;11.90;99.90
11087;DHT22;5597;47.588;9.642;2022-08-23T05:31:07;12.00;99.90
11087;DHT22;5597;47.588;9.642;2022-08-23T05:33:34;12.10;99.90
11087;DHT22;5597;47.588;9.642;2022-08-23T05:36:00;12.30;99.90
11087;DHT22;5597;47.588;9.642;2022-08-23T05:38:27;12.40;99.90
11087;DHT22;5597;47.588;9.642;2022-08-23T05:40:54;12.50;99.90
11087;DHT22;5597;47.588;9.642;2022-08-23T05:43:22;12.60;99.90
11087;DHT22;5597;47.588;9.642;2022-08-23T05:45:59;12.80;99.90
11087;DHT22;5597;47.588;9.642;2022-08-23T05:48:25;13.00;99.90
11087;DHT22;5597;47.588;9.642;2022-08-23T05:50:50;13.10;99.90
11087;DHT22;5597;47.588;9.642;2022-08-23T05:53:16;13.20;99.90
11087;DHT22;5597;47.588;9.642;2022-08-23T05:55:41;13.40;99.90
11087;DHT22;5597;47.588;9.642;2022-08-23T05:58:07;13.60;99.90
11087;DHT22;5597;47.588;9.642;2022-08-23T06:00:33;13.70;99.90
11087;DHT22;5597;47.588;9.642;2022-08-23T06:02:58;13.90;99.90
11087;DHT22;5597;47.588;9.642;2022-08-23T06:05:24;14.10;99.90
11087;DHT22;5597;47.588;9.642;2022-08-23T06:07:50;14.20;99.90
11087;DHT22;5597;47.588;9.642;2022-08-23T06:10:16;14.40;99.90
11087;DHT22;5597;47.588;9.642;2022-08-23T06:12:44;14.60;99.90
11087;DHT22;5597;47.588;9.642;2022-08-23T06:15:10;14.70;99.90
11087;DHT22;5597;47.588;9.642;2022-08-23T06:17:36;14.90;99.90
11087;DHT22;5597;47.588;9.642;2022-08-23T06:20:02;15.10;99.90
11087;DHT22;5597;47.588;9.642;2022-08-23T06:22:28;15.30;99.90
11087;DHT22;5597;47.588;9.642;2022-08-23T06:24:54;15.50;99.90
11087;DHT22;5597;47.588;9.642;2022-08-23T06:27:19;15.70;99.90
11087;DHT22;5597;47.588;9.642;2022-08-23T06:29:46;16.00;99.90
11087;DHT22;5597;47.588;9.642;2022-08-23T06:32:12;16.20;99.90
11087;DHT22;5597;47.588;9.642;2022-08-23T06:34:38;16.30;99.90
11087;DHT22;5597;47.588;9.642;2022-08-23T06:37:08;16.50;99.90
11087;DHT22;5597;47.588;9.642;2022-08-23T06:39:34;16.70;99.90
11087;DHT22;5597;47.588;9.642;2022-08-23T06:42:09;16.90;99.90
11087;DHT22;5597;47.588;9.642;2022-08-23T06:44:35;17.10;99.90
11087;DHT22;5597;47.588;9.642;2022-08-23T06:47:01;17.30;99.90
11087;DHT22;5597;47.588;9.642;2022-08-23T06:49:28;17.40;99.90
11087;DHT22;5597;47.588;9.642;2022-08-23T06:51:56;17.60;99.90
11087;DHT22;5597;47.588;9.642;2022-08-23T06:54:26;17.80;99.90
11087;DHT22;5597;47.588;9.642;2022-08-23T06:56:52;18.00;99.90
11087;DHT22;5597;47.588;9.642;2022-08-23T06:59:19;18.20;99.90
11087;DHT22;5597;47.588;9.642;2022-08-23T07:01:48;18.40;99.90
11087;DHT22;5597;47.588;9.642;2022-08-23T07:04:17;18.60;99.90
11087;DHT22;5597;47.588;9.642;2022-08-23T07:06:44;18.80;99.90
11087;DHT22;5597;47.588;9.642;2022-08-23T07:09:10;18.90;99.90
11087;DHT22;5597;47.588;9.642;2022-08-23T07:11:35;19.10;99.90
11087;DHT22;5597;47.588;9.642;2022-08-23T07:14:06;19.20;99.90
11087;DHT22;5597;47.588;9.642;2022-08-23T07:16:38;19.30;99.90
11087;DHT22;5597;47.588;9.642;2022-08-23T07:19:04;19.40;99.90
11087;DHT22;5597;47.588;9.642;2022-08-23T07:21:30;19.50;99.90
11087;DHT22;5597;47.588;9.642;2022-08-23T07:23:56;19.60;99.90
11087;DHT22;5597;47.588;9.642;2022-08-23T07:26:22;19.70;99.90
11087;DHT22;5597;47.588;9.642;2022-08-23T07:28:49;19.80;99.90
11087;DHT22;5597;47.588;9.642;2022-08-23T07:31:17;19.80;99.90
11087;DHT22;5597;47.588;9.642;2022-08-23T07:33:43;19.90;99.90
11087;DHT22;5597;47.588;9.642;2022-08-23T07:36:12;20.10;99.90
11087;DHT22;5597;47.588;9.642;2022-08-23T07:38:38;20.20;99.90
11087;DHT22;5597;47.588;9.642;2022-08-23T07:41:04;20.30;99.90
11087;DHT22;5597;47.588;9.642;2022-08-23T07:43:33;20.40;99.90
11087;DHT22;5597;47.588;9.642;2022-08-23T07:45:59;20.50;99.90
11087;DHT22;5597;47.588;9.642;2022-08-23T07:48:25;20.70;99.90
11087;DHT22;5597;47.588;9.642;2022-08-23T07:50:52;20.70;99.90
11087;DHT22;5597;47.588;9.642;2022-08-23T07:53:18;20.90;99.90
11087;DHT22;5597;47.588;9.642;2022-08-23T07:55:44;21.00;99.90
11087;DHT22;5597;47.588;9.642;2022-08-23T07:58:10;21.10;99.90
11087;DHT22;5597;47.588;9.642;2022-08-23T08:00:35;21.20;99.90
11087;DHT22;5597;47.588;9.642;2022-08-23T08:03:01;21.40;99.90
11087;DHT22;5597;47.588;9.642;2022-08-23T08:05:27;21.40;99.90
11087;DHT22;5597;47.588;9.642;2022-08-23T08:07:52;21.50;99.90
11087;DHT22;5597;47.588;9.642;2022-08-23T08:10:18;21.50;99.90
11087;DHT22;5597;47.588;9.642;2022-08-23T08:12:44;21.70;99.90
11087;DHT22;5597;47.588;9.642;2022-08-23T08:15:10;21.80;99.90
11087;DHT22;5597;47.588;9.642;2022-08-23T08:17:35;22.00;99.90
11087;DHT22;5597;47.588;9.642;2022-08-23T08:20:01;22.20;99.90
11087;DHT22;5597;47.588;9.642;2022-08-23T08:22:27;22.30;99.90
11087;DHT22;5597;47.588;9.642;2022-08-23T08:24:52;22.50;99.90
11087;DHT22;5597;47.588;9.642;2022-08-23T08:27:18;22.60;99.90
11087;DHT22;5597;47.588;9.642;2022-08-23T08:29:44;22.70;99.90
11087;DHT22;5597;47.588;9.642;2022-08-23T08:32:09;22.90;99.90
11087;DHT22;5597;47.588;9.642;2022-08-23T08:34:35;23.00;99.90
11087;DHT22;5597;47.588;9.642;2022-08-23T08:37:00;23.20;99.90
11087;DHT22;5597;47.588;9.642;2022-08-23T08:39:30;23.30;99.90
11087;DHT22;5597;47.588;9.642;2022-08-23T08:44:54;23.40;99.90
11087;DHT22;5597;47.588;9.642;2022-08-23T08:50:27;23.70;99.90
11087;DHT22;5597;47.588;9.642;2022-08-23T08:55:34;23.90;99.90
11087;DHT22;5597;47.588;9.642;2022-08-23T08:58:03;24.00;99.90
11087;DHT22;5597;47.588;9.642;2022-08-23T09:00:33;24.10;99.90
11087;DHT22;5597;47.588;9.642;2022-08-23T09:03:04;24.20;99.90
11087;DHT22;5597;47.588;9.642;2022-08-23T09:05:35;24.30;99.90
11087;DHT22;5597;47.588;9.642;2022-08-23T09:10:44;24.30;99.90
11087;DHT22;5597;47.588;9.642;2022-08-23T09:13:37;24.40;99.90
11087;DHT22;5597;47.588;9.642;2022-08-23T09:18:53;24.60;99.90
11087;DHT22;5597;47.588;9.642;2022-08-23T09:21:19;24.70;99.90
11087;DHT22;5597;47.588;9.642;2022-08-23T09:23:46;24.80;99.90
11087;DHT22;5597;47.588;9.642;2022-08-23T09:26:28;25.00;99.90
11087;DHT22;5597;47.588;9.642;2022-08-23T09:28:58;25.10;99.90
11087;DHT22;5597;47.588;9.642;2022-08-23T09:31:43;25.20;99.90
11087;DHT22;5597;47.588;9.642;2022-08-23T09:34:15;25.40;99.90
11087;DHT22;5597;47.588;9.642;2022-08-23T09:36:42;25.50;99.90
11087;DHT22;5597;47.588;9.642;2022-08-23T09:39:26;25.70;99.90
11087;DHT22;5597;47.588;9.642;2022-08-23T09:41:52;25.70;99.90
11087;DHT22;5597;47.588;9.642;2022-08-23T09:44:36;25.80;99.90
11087;DHT22;5597;47.588;9.642;2022-08-23T09:47:11;26.00;99.90
11087;DHT22;5597;47.588;9.642;2022-08-23T09:49:39;26.20;99.90
11087;DHT22;5597;47.588;9.642;2022-08-23T09:52:26;26.30;99.90
11087;DHT22;5597;47.588;9.642;2022-08-23T09:54:59;26.30;99.90
11087;DHT22;5597;47.588;9.642;2022-08-23T09:57:29;26.50;99.90
11087;DHT22;5597;47.588;9.642;2022-08-23T10:02:43;26.50;99.90
11087;DHT22;5597;47.588;9.642;2022-08-23T10:07:42;26.70;99.90
11087;DHT22;5597;47.588;9.642;2022-08-23T10:12:46;27.00;99.90
11087;DHT22;5597;47.588;9.642;2022-08-23T10:15:13;27.00;99.90
11087;DHT22;5597;47.588;9.642;2022-08-23T10:20:28;27.10;99.90
11087;DHT22;5597;47.588;9.642;2022-08-23T10:23:36;27.20;99.90
11087;DHT22;5597;47.588;9.642;2022-08-23T10:26:06;27.10;99.90
11087;DHT22;5597;47.588;9.642;2022-08-23T10:39:25;27.10;95.10
11087;DHT22;5597;47.588;9.642;2022-08-23T10:44:57;27.30;96.90
11087;DHT22;5597;47.588;9.642;2022-08-23T10:47:37;27.50;95.10
11087;DHT22;5597;47.588;9.642;2022-08-23T10:50:18;27.70;93.70
11087;DHT22;5597;47.588;9.642;2022-08-23T10:52:55;27.60;91.30
11087;DHT22;5597;47.588;9.642;2022-08-23T10:55:28;27.60;97.80
11087;DHT22;5597;47.588;9.642;2022-08-23T10:58:23;27.60;95.10
11087;DHT22;5597;47.588;9.642;2022-08-23T11:00:52;27.80;92.80
11087;DHT22;5597;47.588;9.642;2022-08-23T11:03:26;28.20;94.10
11087;DHT22;5597;47.588;9.642;2022-08-23T11:14:01;29.00;91.00
11087;DHT22;5597;47.588;9.642;2022-08-23T11:16:30;29.10;86.90
11087;DHT22;5597;47.588;9.642;2022-08-23T11:18:56;29.20;83.30
11087;DHT22;5597;47.588;9.642;2022-08-23T11:24:27;29.50;82.60
11087;DHT22;5597;47.588;9.642;2022-08-23T11:34:41;30.00;79.40
11087;DHT22;5597;47.588;9.642;2022-08-23T11:42:32;29.80;74.00
11087;DHT22;5597;47.588;9.642;2022-08-23T12:01:34;29.40;75.60
11087;DHT22;5597;47.588;9.642;2022-08-23T12:04:04;29.30;71.70
11087;DHT22;5597;47.588;9.642;2022-08-23T12:17:02;29.60;74.60
11087;DHT22;5597;47.588;9.642;2022-08-23T12:19:34;29.80;71.20
11087;DHT22;5597;47.588;9.642;2022-08-23T12:22:33;29.80;67.00
11087;DHT22;5597;47.588;9.642;2022-08-23T12:25:18;29.50;67.10
11087;DHT22;5597;47.588;9.642;2022-08-23T12:27:51;29.50;73.80
11087;DHT22;5597;47.588;9.642;2022-08-23T12:30:23;29.80;68.10
11087;DHT22;5597;47.588;9.642;2022-08-23T12:33:10;29.90;65.00
11087;DHT22;5597;47.588;9.642;2022-08-23T12:36:16;29.80;66.50
11087;DHT22;5597;47.588;9.642;2022-08-23T12:39:03;29.70;64.60
11087;DHT22;5597;47.588;9.642;2022-08-23T12:41:47;29.50;63.10
11087;DHT22;5597;47.588;9.642;2022-08-23T12:44:18;29.50;65.40
11087;DHT22;5597;47.588;9.642;2022-08-23T12:46:47;29.50;63.40
11087;DHT22;5597;47.588;9.642;2022-08-23T12:49:31;29.50;64.50
11087;DHT22;5597;47.588;9.642;2022-08-23T12:51:59;29.60;62.30
11087;DHT22;5597;47.588;9.642;2022-08-23T12:54:41;29.70;64.30
11087;DHT22;5597;47.588;9.642;2022-08-23T12:57:13;29.70;63.10
11087;DHT22;5597;47.588;9.642;2022-08-23T12:59:41;29.70;63.80
11087;DHT22;5597;47.588;9.642;2022-08-23T13:02:31;29.60;65.70
11087;DHT22;5597;47.588;9.642;2022-08-23T13:05:12;29.60;63.20
11087;DHT22;5597;47.588;9.642;2022-08-23T13:07:40;29.70;60.30
11087;DHT22;5597;47.588;9.642;2022-08-23T13:10:07;29.60;60.40
11087;DHT22;5597;47.588;9.642;2022-08-23T13:12:34;29.60;64.00
11087;DHT22;5597;47.588;9.642;2022-08-23T13:15:00;29.50;61.60
11087;DHT22;5597;47.588;9.642;2022-08-23T13:17:37;29.50;63.20
11087;DHT22;5597;47.588;9.642;2022-08-23T13:20:23;29.40;61.90
11087;DHT22;5597;47.588;9.642;2022-08-23T13:25:28;29.40;60.70
11087;DHT22;5597;47.588;9.642;2022-08-23T13:28:04;29.40;61.90
11087;DHT22;5597;47.588;9.642;2022-08-23T13:30:32;29.60;60.80
11087;DHT22;5597;47.588;9.642;2022-08-23T13:38:17;30.10;61.60
11087;DHT22;5597;47.588;9.642;2022-08-23T13:41:03;30.30;60.00
11087;DHT22;5597;47.588;9.642;2022-08-23T13:43:46;30.40;59.10
11087;DHT22;5597;47.588;9.642;2022-08-23T13:46:19;30.40;59.30
11087;DHT22;5597;47.588;9.642;2022-08-23T13:51:42;30.40;59.90
11087;DHT22;5597;47.588;9.642;2022-08-23T13:54:14;30.10;60.00
11087;DHT22;5597;47.588;9.642;2022-08-23T13:56:49;30.10;60.70
11087;DHT22;5597;47.588;9.642;2022-08-23T13:59:24;30.00;59.90
11087;DHT22;5597;47.588;9.642;2022-08-23T14:01:51;29.80;60.30
11087;DHT22;5597;47.588;9.642;2022-08-23T14:04:16;29.70;58.80
11087;DHT22;5597;47.588;9.642;2022-08-23T14:06:42;29.60;60.70
11087;DHT22;5597;47.588;9.642;2022-08-23T14:09:08;29.50;60.90
11087;DHT22;5597;47.588;9.642;2022-08-23T14:11:33;29.50;60.90
11087;DHT22;5597;47.588;9.642;2022-08-23T14:13:59;29.50;61.60
11087;DHT22;5597;47.588;9.642;2022-08-23T14:16:33;29.60;59.60
11087;DHT22;5597;47.588;9.642;2022-08-23T14:19:01;29.50;60.00
11087;DHT22;5597;47.588;9.642;2022-08-23T14:21:27;29.30;59.50
11087;DHT22;5597;47.588;9.642;2022-08-23T14:23:52;29.20;60.00
11087;DHT22;5597;47.588;9.642;2022-08-23T14:26:19;29.20;60.00
11087;DHT22;5597;47.588;9.642;2022-08-23T14:28:46;29.20;60.50
11087;DHT22;5597;47.588;9.642;2022-08-23T14:31:12;29.20;59.90
11087;DHT22;5597;47.588;9.642;2022-08-23T14:33:38;29.20;59.70
11087;DHT22;5597;47.588;9.642;2022-08-23T14:36:05;29.30;62.70
11087;DHT22;5597;47.588;9.642;2022-08-23T14:38:31;29.50;57.40
11087;DHT22;5597;47.588;9.642;2022-08-23T14:41:01;29.50;58.00
11087;DHT22;5597;47.588;9.642;2022-08-23T14:43:28;29.50;58.40
11087;DHT22;5597;47.588;9.642;2022-08-23T14:45:55;29.50;58.80
11087;DHT22;5597;47.588;9.642;2022-08-23T14:48:21;29.50;57.50
11087;DHT22;5597;47.588;9.642;2022-08-23T14:50:48;29.40;59.10
11087;DHT22;5597;47.588;9.642;2022-08-23T14:53:16;29.30;60.00
11087;DHT22;5597;47.588;9.642;2022-08-23T14:55:42;29.40;59.40
11087;DHT22;5597;47.588;9.642;2022-08-23T14:58:08;29.60;59.90
11087;DHT22;5597;47.588;9.642;2022-08-23T15:00:35;29.60;59.80
11087;DHT22;5597;47.588;9.642;2022-08-23T15:03:03;29.60;59.00
11087;DHT22;5597;47.588;9.642;2022-08-23T15:05:29;29.50;59.20
11087;DHT22;5597;47.588;9.642;2022-08-23T15:07:55;29.50;59.70
11087;DHT22;5597;47.588;9.642;2022-08-23T15:10:21;29.50;58.70
11087;DHT22;5597;47.588;9.642;2022-08-23T15:12:46;29.40;57.50
11087;DHT22;5597;47.588;9.642;2022-08-23T15:15:16;29.20;57.90
11087;DHT22;5597;47.588;9.642;2022-08-23T15:17:48;29.10;56.80
11087;DHT22;5597;47.588;9.642;2022-08-23T15:20:20;29.00;58.00
11087;DHT22;5597;47.588;9.642;2022-08-23T15:22:46;29.00;58.00
11087;DHT22;5597;47.588;9.642;2022-08-23T15:25:13;28.80;58.30
11087;DHT22;5597;47.588;9.642;2022-08-23T15:27:39;28.80;60.10
11087;DHT22;5597;47.588;9.642;2022-08-23T15:30:05;28.80;58.20
11087;DHT22;5597;47.588;9.642;2022-08-23T15:32:31;28.80;60.30
11087;DHT22;5597;47.588;9.642;2022-08-23T15:34:57;29.10;61.30
11087;DHT22;5597;47.588;9.642;2022-08-23T15:37:23;29.20;58.40
11087;DHT22;5597;47.588;9.642;2022-08-23T15:39:48;29.20;58.10
11087;DHT22;5597;47.588;9.642;2022-08-23T15:42:14;29.10;58.10
11087;DHT22;5597;47.588;9.642;2022-08-23T15:44:40;28.90;59.50
11087;DHT22;5597;47.588;9.642;2022-08-23T15:47:15;28.90;60.60
11087;DHT22;5597;47.588;9.642;2022-08-23T15:49:42;29.00;59.30
11087;DHT22;5597;47.588;9.642;2022-08-23T15:52:08;28.80;60.90
11087;DHT22;5597;47.588;9.642;2022-08-23T15:54:33;28.80;58.90
11087;DHT22;5597;47.588;9.642;2022-08-23T15:56:59;28.80;60.40
11087;DHT22;5597;47.588;9.642;2022-08-23T15:59:25;28.70;58.90
11087;DHT22;5597;47.588;9.642;2022-08-23T16:01:50;28.60;58.80
11087;DHT22;5597;47.588;9.642;2022-08-23T16:04:16;28.50;59.90
11087;DHT22;5597;47.588;9.642;2022-08-23T16:06:42;28.30;58.40
11087;DHT22;5597;47.588;9.642;2022-08-23T16:09:16;28.20;59.70
11087;DHT22;5597;47.588;9.642;2022-08-23T16:11:43;28.10;60.50
11087;DHT22;5597;47.588;9.642;2022-08-23T16:14:09;28.10;59.80
11087;DHT22;5597;47.588;9.642;2022-08-23T16:16:37;27.90;59.90
11087;DHT22;5597;47.588;9.642;2022-08-23T16:19:03;27.80;60.00
11087;DHT22;5597;47.588;9.642;2022-08-23T16:21:33;27.80;60.70
11087;DHT22;5597;47.588;9.642;2022-08-23T16:23:59;27.70;61.80
11087;DHT22;5597;47.588;9.642;2022-08-23T16:26:28;27.70;62.00
11087;DHT22;5597;47.588;9.642;2022-08-23T16:28:56;27.60;62.90
11087;DHT22;5597;47.588;9.642;2022-08-23T16:31:22;27.60;63.80
11087;DHT22;5597;47.588;9.642;2022-08-23T16:33:56;27.50;62.00
11087;DHT22;5597;47.588;9.642;2022-08-23T16:36:23;27.40;62.90
11087;DHT22;5597;47.588;9.642;2022-08-23T16:38:49;27.30;62.80
11087;DHT22;5597;47.588;9.642;2022-08-23T16:41:15;27.20;62.70
11087;DHT22;5597;47.588;9.642;2022-08-23T16:43:41;27.10;61.90
11087;DHT22;5597;47.588;9.642;2022-08-23T16:46:07;27.00;62.80
11087;DHT22;5597;47.588;9.642;2022-08-23T16:48:33;27.00;65.20
11087;DHT22;5597;47.588;9.642;2022-08-23T16:50:59;26.90;65.10
11087;DHT22;5597;47.588;9.642;2022-08-23T16:53:25;26.80;64.50
11087;DHT22;5597;47.588;9.642;2022-08-23T16:55:51;26.80;65.60
11087;DHT22;5597;47.588;9.642;2022-08-23T16:58:17;26.60;66.00
11087;DHT22;5597;47.588;9.642;2022-08-23T17:00:43;26.50;66.40
11087;DHT22;5597;47.588;9.642;2022-08-23T17:03:09;26.30;68.20
11087;DHT22;5597;47.588;9.642;2022-08-23T17:05:35;26.20;68.40
11087;DHT22;5597;47.588;9.642;2022-08-23T17:08:00;26.10;68.70
11087;DHT22;5597;47.588;9.642;2022-08-23T17:10:26;25.90;70.10
11087;DHT22;5597;47.588;9.642;2022-08-23T17:12:54;25.80;71.60
11087;DHT22;5597;47.588;9.642;2022-08-23T17:15:24;25.70;71.50
11087;DHT22;5597;47.588;9.642;2022-08-23T17:17:50;25.60;71.60
11087;DHT22;5597;47.588;9.642;2022-08-23T17:20:18;25.50;71.40
11087;DHT22;5597;47.588;9.642;2022-08-23T17:22:44;25.30;72.30
11087;DHT22;5597;47.588;9.642;2022-08-23T17:25:10;25.20;72.40
11087;DHT22;5597;47.588;9.642;2022-08-23T17:27:36;25.10;71.90
11087;DHT22;5597;47.588;9.642;2022-08-23T17:30:08;25.00;74.20
11087;DHT22;5597;47.588;9.642;2022-08-23T17:32:36;24.90;74.60
11087;DHT22;5597;47.588;9.642;2022-08-23T17:35:04;24.80;75.70
11087;DHT22;5597;47.588;9.642;2022-08-23T17:37:30;24.60;76.10